Time;durP1;ratioP1;P1;durP2;ratioP2;P2;SDS_P1;SDS_P2;PMS_P1;PMS_P2;Temp;Humidity;BMP_temperature;BMP_pressure;BME280_temperature;BME280_humidity;BME280_pressure;Samples;Min_cycle;Max_cycle;Signal;HPM_P1;HPM_P2
2023/07/19 00:00:48;;;;;;;5.28;2.30;;;16.90;85.60;;;;;;4963048;28;20035;-79
2023/07/19 00:03:13;;;;;;;3.80;2.10;;;16.90;86.10;;;;;;4947807;28;20028;-80
2023/07/19 00:05:39;;;;;;;2.50;1.70;;;16.90;84.80;;;;;;4953988;28;20062;-81
2023/07/19 00:08:05;;;;;;;3.10;2.05;;;17.00;83.90;;;;;;4951085;28;20065;-81
2023/07/19 00:10:31;;;;;;;3.97;1.85;;;16.90;83.90;;;;;;4953190;28;20047;-82
2023/07/19 00:12:57;;;;;;;3.33;2.05;;;17.00;84.40;;;;;;4955567;28;20026;-83
2023/07/19 00:15:24;;;;;;;3.75;2.15;;;17.00;84.10;;;;;;4951999;28;20446;-82
2023/07/19 00:17:50;;;;;;;3.65;2.25;;;17.10;83.50;;;;;;4954264;28;20019;-81
2023/07/19 00:20:16;;;;;;;5.45;2.40;;;17.10;83.40;;;;;;4959223;28;20038;-81
2023/07/19 00:22:41;;;;;;;4.03;2.22;;;17.10;83.80;;;;;;4953738;28;20031;-81
2023/07/19 00:25:08;;;;;;;3.78;2.13;;;17.10;84.40;;;;;;4956285;28;20454;-81
2023/07/19 00:27:33;;;;;;;4.50;2.20;;;17.10;84.70;;;;;;4956373;28;20089;-83
2023/07/19 00:29:59;;;;;;;4.15;1.92;;;17.10;85.00;;;;;;4952056;28;20135;-81
2023/07/19 00:32:25;;;;;;;2.65;1.80;;;17.10;84.70;;;;;;4977222;28;20561;-81
2023/07/19 00:34:51;;;;;;;3.25;1.80;;;17.10;82.50;;;;;;4953458;28;20046;-82
2023/07/19 00:37:18;;;;;;;3.15;2.03;;;17.10;81.20;;;;;;4957815;28;20039;-82
2023/07/19 00:39:43;;;;;;;3.67;2.17;;;17.00;82.50;;;;;;4955519;28;20231;-81
2023/07/19 00:42:09;;;;;;;3.30;1.83;;;17.00;82.00;;;;;;4945533;28;20090;-80
2023/07/19 00:44:35;;;;;;;4.68;2.30;;;16.90;81.70;;;;;;4953856;28;20035;-79
2023/07/19 00:47:02;;;;;;;5.22;2.40;;;16.90;82.40;;;;;;4965036;28;20046;-83
2023/07/19 00:49:32;;;;;;;4.45;1.83;;;16.90;82.40;;;;;;4957905;28;20082;-82
2023/07/19 00:52:02;;;;;;;3.25;1.98;;;16.80;81.90;;;;;;4963370;28;20028;-82
2023/07/19 00:54:29;;;;;;;2.03;1.77;;;16.80;81.70;;;;;;4961770;28;20122;-80
2023/07/19 00:56:56;;;;;;;5.15;1.85;;;16.80;81.60;;;;;;4965987;28;20410;-79
2023/07/19 00:59:22;;;;;;;2.90;1.55;;;16.70;81.60;;;;;;4948788;28;20023;-81
2023/07/19 01:01:50;;;;;;;4.22;1.90;;;16.70;81.60;;;;;;4954562;28;20027;-80
2023/07/19 01:04:16;;;;;;;4.82;1.60;;;16.70;82.20;;;;;;4954554;28;20044;-80
2023/07/19 01:06:43;;;;;;;3.30;1.92;;;16.60;82.50;;;;;;4957170;28;20043;-79
2023/07/19 01:09:13;;;;;;;2.45;1.70;;;16.60;82.20;;;;;;4962698;28;20634;-80
2023/07/19 01:11:40;;;;;;;4.50;2.10;;;16.60;81.70;;;;;;4958404;28;20378;-80
2023/07/19 01:14:07;;;;;;;2.65;1.67;;;16.60;82.10;;;;;;4955549;28;20042;-79
2023/07/19 01:16:34;;;;;;;2.78;2.30;;;16.50;83.30;;;;;;4967927;28;20087;-83
2023/07/19 01:18:59;;;;;;;3.03;2.03;;;16.50;83.60;;;;;;4961870;28;20059;-83
2023/07/19 01:21:25;;;;;;;2.45;1.75;;;16.50;83.70;;;;;;4967536;28;20027;-82
2023/07/19 01:23:51;;;;;;;2.03;1.70;;;16.50;83.30;;;;;;4962654;28;20105;-83
2023/07/19 01:26:18;;;;;;;6.20;2.08;;;16.40;85.20;;;;;;4969761;28;20038;-83
2023/07/19 01:28:44;;;;;;;4.70;2.17;;;16.40;85.90;;;;;;4976663;28;20460;-80
2023/07/19 01:31:15;;;;;;;3.88;1.92;;;16.40;86.90;;;;;;4962541;28;20040;-80
2023/07/19 01:33:41;;;;;;;3.88;2.40;;;16.40;87.60;;;;;;4959872;28;20087;-80
2023/07/19 01:36:07;;;;;;;3.13;1.83;;;16.40;88.20;;;;;;4954752;28;20138;-81
2023/07/19 01:38:34;;;;;;;3.92;2.28;;;16.30;88.30;;;;;;4955864;28;20063;-80
2023/07/19 01:41:01;;;;;;;3.53;2.10;;;16.30;88.80;;;;;;4955331;28;20036;-80
2023/07/19 01:43:27;;;;;;;1.90;1.75;;;16.30;88.30;;;;;;4954356;28;20027;-80
2023/07/19 01:45:52;;;;;;;6.53;2.05;;;16.30;87.70;;;;;;4966437;28;20041;-81
2023/07/19 01:48:18;;;;;;;3.03;1.90;;;16.40;88.00;;;;;;4968097;28;20030;-83
2023/07/19 01:50:48;;;;;;;2.58;2.00;;;16.40;87.90;;;;;;4966412;28;20041;-83
2023/07/19 01:53:14;;;;;;;3.90;2.00;;;16.40;88.50;;;;;;4954201;28;20179;-83
2023/07/19 01:55:40;;;;;;;6.88;2.10;;;16.40;89.10;;;;;;4949600;28;20046;-81
2023/07/19 01:58:08;;;;;;;3.50;2.22;;;16.40;88.10;;;;;;4971087;28;20031;-81
2023/07/19 02:00:34;;;;;;;2.45;1.70;;;16.40;88.60;;;;;;4957630;28;20362;-80
2023/07/19 02:03:00;;;;;;;2.35;1.80;;;16.40;88.80;;;;;;4954991;28;20059;-81
2023/07/19 02:05:26;;;;;;;3.92;1.70;;;16.40;88.80;;;;;;4957595;28;20462;-81
2023/07/19 02:07:52;;;;;;;3.60;2.25;;;16.30;90.20;;;;;;4958662;28;20552;-81
2023/07/19 02:10:18;;;;;;;4.47;2.83;;;16.30;89.40;;;;;;4957122;28;20039;-80
2023/07/19 02:12:46;;;;;;;2.50;2.17;;;16.30;89.50;;;;;;4954309;28;20038;-80
2023/07/19 02:15:12;;;;;;;4.78;1.95;;;16.20;89.50;;;;;;4960305;28;20055;-80
2023/07/19 02:17:37;;;;;;;3.47;2.17;;;16.20;88.80;;;;;;4964130;28;20062;-80
2023/07/19 02:20:04;;;;;;;2.33;2.13;;;16.20;90.20;;;;;;4959846;28;20099;-81
2023/07/19 02:22:29;;;;;;;2.58;2.03;;;16.20;90.50;;;;;;4963352;28;20453;-81
2023/07/19 02:24:55;;;;;;;2.88;1.80;;;16.10;90.00;;;;;;4965497;28;20034;-80
2023/07/19 02:27:21;;;;;;;4.50;1.95;;;16.00;89.80;;;;;;4959536;28;20031;-80
2023/07/19 02:29:47;;;;;;;3.05;1.90;;;16.00;89.70;;;;;;4954720;28;20082;-80
2023/07/19 02:32:12;;;;;;;3.25;1.98;;;16.00;89.40;;;;;;4961563;28;20059;-80
2023/07/19 02:34:38;;;;;;;4.50;2.03;;;16.00;89.40;;;;;;4961437;28;20049;-81
2023/07/19 02:37:04;;;;;;;3.05;2.00;;;16.00;90.20;;;;;;4959463;28;20047;-80
2023/07/19 02:39:30;;;;;;;2.88;2.00;;;16.00;90.10;;;;;;4954566;28;20041;-80
2023/07/19 02:41:57;;;;;;;2.17;1.98;;;15.90;90.40;;;;;;4959602;28;20112;-81
2023/07/19 02:44:23;;;;;;;2.30;1.85;;;15.90;90.80;;;;;;4938556;28;20038;-80
2023/07/19 02:46:49;;;;;;;4.57;2.58;;;15.90;90.90;;;;;;4961474;28;20039;-79
2023/07/19 02:49:15;;;;;;;2.55;1.88;;;15.90;91.10;;;;;;4954691;28;20036;-80
2023/07/19 02:51:41;;;;;;;3.00;2.22;;;15.90;91.10;;;;;;4961208;28;20031;-82
2023/07/19 02:54:06;;;;;;;8.13;2.53;;;15.90;90.80;;;;;;4973299;28;20473;-82
2023/07/19 02:56:32;;;;;;;4.25;2.58;;;15.90;90.80;;;;;;4959517;28;20039;-79
2023/07/19 02:58:58;;;;;;;2.63;2.15;;;15.90;90.90;;;;;;4972388;28;20051;-80
2023/07/19 03:01:23;;;;;;;13.35;2.70;;;15.90;90.70;;;;;;4974724;28;20031;-83
2023/07/19 03:03:49;;;;;;;3.55;2.42;;;15.90;91.30;;;;;;4957023;28;20035;-81
2023/07/19 03:06:15;;;;;;;4.47;2.42;;;15.90;91.50;;;;;;4956095;28;20050;-82
2023/07/19 03:08:43;;;;;;;3.22;2.45;;;15.80;91.40;;;;;;4972911;28;20050;-80
2023/07/19 03:11:18;;;;;;;3.40;2.47;;;15.80;91.80;;;;;;4940231;29;20042;-81
2023/07/19 03:13:48;;;;;;;4.00;2.30;;;15.80;92.30;;;;;;4966337;28;20043;-83
2023/07/19 03:16:14;;;;;;;2.70;2.30;;;15.80;92.40;;;;;;4963387;28;20043;-82
2023/07/19 03:18:40;;;;;;;3.13;2.55;;;15.80;92.90;;;;;;4961118;28;20082;-81
2023/07/19 03:21:06;;;;;;;3.78;2.78;;;15.80;93.30;;;;;;4963327;28;20031;-81
2023/07/19 03:23:32;;;;;;;4.30;2.55;;;15.80;94.10;;;;;;4951260;29;20035;-80
2023/07/19 03:25:58;;;;;;;3.50;2.70;;;15.70;94.40;;;;;;4958377;28;20038;-79
2023/07/19 03:28:29;;;;;;;3.67;2.40;;;15.70;94.90;;;;;;4957707;28;20027;-81
2023/07/19 03:30:55;;;;;;;2.95;2.40;;;15.60;94.60;;;;;;4957408;28;20032;-81
2023/07/19 03:33:22;;;;;;;3.28;2.50;;;15.60;94.80;;;;;;4942874;29;20103;-82
2023/07/19 03:35:48;;;;;;;4.22;2.28;;;15.60;95.00;;;;;;4956303;28;20030;-81
2023/07/19 03:38:14;;;;;;;2.72;2.20;;;15.60;94.80;;;;;;4961811;28;20118;-81
2023/07/19 03:40:40;;;;;;;3.20;2.58;;;15.50;94.70;;;;;;4960592;28;20035;-81
2023/07/19 03:43:06;;;;;;;3.67;2.80;;;15.50;95.00;;;;;;4956636;28;20058;-81
2023/07/19 03:45:32;;;;;;;3.17;2.35;;;15.50;95.50;;;;;;4955040;28;20529;-79
2023/07/19 03:47:58;;;;;;;2.67;2.17;;;15.50;95.80;;;;;;4969148;28;20031;-80
2023/07/19 03:50:25;;;;;;;2.78;2.30;;;15.50;95.80;;;;;;4956744;28;20032;-80
2023/07/19 03:52:50;;;;;;;2.72;2.42;;;15.50;95.90;;;;;;4965926;28;20046;-80
2023/07/19 03:55:18;;;;;;;3.58;2.50;;;15.50;96.00;;;;;;4968213;28;20448;-80
2023/07/19 03:57:44;;;;;;;3.00;2.53;;;15.50;96.40;;;;;;4963116;28;20067;-81
2023/07/19 04:00:10;;;;;;;2.75;2.30;;;15.50;96.50;;;;;;4956475;28;20031;-80
2023/07/19 04:02:47;;;;;;;8.52;2.60;;;15.50;96.60;;;;;;4935228;28;20034;-80
2023/07/19 04:05:16;;;;;;;3.20;2.58;;;15.50;96.80;;;;;;4952439;28;20023;-81
2023/07/19 04:07:42;;;;;;;3.83;2.53;;;15.50;97.30;;;;;;4955033;28;20031;-79
2023/07/19 04:10:08;;;;;;;4.93;2.75;;;15.50;97.40;;;;;;4969210;28;20513;-79
2023/07/19 04:12:34;;;;;;;3.10;2.40;;;15.50;98.10;;;;;;4959328;28;20039;-81
2023/07/19 04:15:00;;;;;;;3.80;2.40;;;15.50;97.90;;;;;;4967858;28;20094;-79
2023/07/19 04:17:27;;;;;;;3.38;2.58;;;15.50;97.90;;;;;;4956372;28;20549;-80
2023/07/19 04:19:53;;;;;;;2.20;2.00;;;15.50;98.20;;;;;;4958114;28;20035;-80
2023/07/19 04:22:19;;;;;;;4.05;2.72;;;15.50;98.10;;;;;;4960447;28;20054;-80
2023/07/19 04:24:46;;;;;;;4.57;3.00;;;15.60;98.70;;;;;;4965437;28;20062;-81
2023/07/19 04:27:11;;;;;;;3.58;2.60;;;15.60;99.30;;;;;;4963877;28;20070;-81
2023/07/19 04:29:37;;;;;;;4.93;2.58;;;15.70;99.10;;;;;;4965989;28;20153;-80
2023/07/19 04:32:03;;;;;;;3.58;2.60;;;15.70;99.30;;;;;;4939867;28;20046;-81
2023/07/19 04:34:30;;;;;;;3.67;2.22;;;15.70;99.50;;;;;;4960082;28;20624;-81
2023/07/19 04:36:56;;;;;;;3.15;2.70;;;15.80;99.90;;;;;;4957648;28;20130;-81
2023/07/19 04:39:22;;;;;;;3.97;2.13;;;15.90;99.90;;;;;;4958980;28;20039;-81
2023/07/19 04:41:48;;;;;;;4.22;2.50;;;15.90;99.90;;;;;;4961902;28;20031;-81
2023/07/19 04:44:16;;;;;;;3.33;2.33;;;15.90;99.90;;;;;;4950978;28;20077;-81
2023/07/19 04:46:42;;;;;;;3.78;2.70;;;15.90;99.90;;;;;;4961227;28;20062;-82
2023/07/19 04:49:08;;;;;;;3.58;2.58;;;16.00;99.90;;;;;;4977490;28;20043;-83
2023/07/19 04:51:34;;;;;;;4.40;2.58;;;16.00;99.90;;;;;;4965341;28;20134;-83
2023/07/19 04:53:59;;;;;;;2.75;1.90;;;16.10;99.90;;;;;;4956353;28;20072;-81
2023/07/19 04:56:27;;;;;;;2.65;2.30;;;16.10;99.90;;;;;;4967607;28;20167;-80
2023/07/19 04:58:54;;;;;;;3.97;2.40;;;16.10;99.90;;;;;;4961762;28;20023;-80
2023/07/19 05:01:20;;;;;;;3.65;2.35;;;16.20;99.90;;;;;;4958735;28;20023;-78
2023/07/19 05:03:46;;;;;;;2.67;2.05;;;16.20;99.90;;;;;;4957628;28;20449;-81
2023/07/19 05:06:12;;;;;;;4.60;2.47;;;16.30;99.90;;;;;;4960463;28;20035;-81
2023/07/19 05:08:37;;;;;;;2.92;2.40;;;16.40;99.90;;;;;;4960050;28;20046;-81
2023/07/19 05:11:04;;;;;;;3.83;2.45;;;16.40;99.90;;;;;;4971625;28;20058;-81
2023/07/19 05:13:30;;;;;;;3.67;2.53;;;16.50;99.90;;;;;;4961571;28;20031;-80
2023/07/19 05:15:56;;;;;;;2.85;2.20;;;16.60;99.90;;;;;;4962722;28;20049;-79
2023/07/19 05:18:22;;;;;;;4.15;2.53;;;16.50;99.90;;;;;;4963111;28;20034;-79
2023/07/19 05:20:48;;;;;;;4.45;2.90;;;16.50;99.90;;;;;;4963791;28;20101;-80
2023/07/19 05:23:14;;;;;;;5.10;2.72;;;16.60;99.90;;;;;;4961591;28;20082;-80
2023/07/19 05:25:40;;;;;;;3.95;2.42;;;16.50;99.90;;;;;;4964328;28;20760;-80
2023/07/19 05:28:06;;;;;;;7.18;3.00;;;16.60;99.90;;;;;;4964260;28;20038;-80
2023/07/19 05:30:32;;;;;;;6.22;3.10;;;16.60;99.90;;;;;;4962343;28;20041;-81
2023/07/19 05:32:57;;;;;;;4.60;2.97;;;16.60;99.90;;;;;;4962053;28;20038;-79
2023/07/19 05:35:23;;;;;;;5.80;3.38;;;16.60;99.80;;;;;;4956401;28;20032;-79
2023/07/19 05:37:49;;;;;;;6.18;3.00;;;16.70;98.40;;;;;;4957066;28;20023;-79
2023/07/19 05:40:17;;;;;;;5.07;2.80;;;16.80;98.60;;;;;;4958348;28;20422;-80
2023/07/19 05:42:42;;;;;;;4.43;3.13;;;17.00;98.60;;;;;;4956656;28;20027;-80
2023/07/19 05:45:08;;;;;;;2.95;2.33;;;17.30;98.20;;;;;;4955562;28;20106;-81
2023/07/19 05:47:34;;;;;;;3.78;2.72;;;17.70;98.30;;;;;;4955713;28;20031;-79
2023/07/19 05:50:00;;;;;;;4.10;2.22;;;18.10;97.50;;;;;;4953908;29;20074;-81
2023/07/19 05:52:28;;;;;;;5.10;2.97;;;18.40;97.20;;;;;;4963407;28;20034;-80
2023/07/19 05:54:54;;;;;;;4.25;2.60;;;18.80;95.30;;;;;;4957554;28;20074;-80
2023/07/19 05:57:20;;;;;;;3.75;2.28;;;19.10;93.70;;;;;;4956541;28;20032;-80
2023/07/19 05:59:46;;;;;;;3.72;2.35;;;19.40;92.90;;;;;;4960964;28;20642;-81
2023/07/19 06:02:12;;;;;;;3.40;2.45;;;19.50;91.60;;;;;;4956091;28;20038;-79
2023/07/19 06:04:38;;;;;;;2.65;2.22;;;19.60;90.60;;;;;;4967209;28;20814;-79
2023/07/19 06:07:04;;;;;;;4.22;2.65;;;19.70;91.30;;;;;;4956919;28;20039;-80
2023/07/19 06:09:30;;;;;;;5.57;3.20;;;19.90;91.50;;;;;;4966262;28;20027;-79
2023/07/19 06:11:57;;;;;;;5.45;2.60;;;20.20;90.90;;;;;;4963152;28;20217;-79
2023/07/19 06:14:23;;;;;;;4.53;2.65;;;20.50;90.20;;;;;;4965409;28;20114;-79
2023/07/19 06:16:49;;;;;;;7.43;2.33;;;20.70;87.00;;;;;;4958518;28;20050;-81
2023/07/19 06:19:18;;;;;;;4.40;2.47;;;21.00;82.30;;;;;;4954303;28;20035;-81
2023/07/19 06:21:44;;;;;;;3.95;2.42;;;21.30;80.80;;;;;;4955021;28;20035;-79
2023/07/19 06:24:09;;;;;;;3.67;2.08;;;21.70;82.60;;;;;;4962360;28;20031;-81
2023/07/19 06:26:35;;;;;;;5.45;2.97;;;22.10;85.80;;;;;;4953180;28;20054;-81
2023/07/19 06:29:01;;;;;;;4.18;2.53;;;22.60;86.20;;;;;;4954085;28;20031;-79
2023/07/19 06:31:27;;;;;;;3.90;2.25;;;22.90;84.90;;;;;;4961311;28;20090;-81
2023/07/19 06:33:58;;;;;;;5.35;2.42;;;23.20;79.00;;;;;;4960513;28;20110;-79
2023/07/19 06:36:24;;;;;;;2.97;2.38;;;23.40;73.40;;;;;;4957352;28;20525;-79
2023/07/19 06:38:50;;;;;;;4.00;2.70;;;23.60;73.60;;;;;;4956479;28;20028;-79
2023/07/19 06:41:15;;;;;;;4.63;2.60;;;23.90;70.30;;;;;;4961948;28;20023;-78
2023/07/19 06:43:41;;;;;;;5.38;2.53;;;24.00;68.10;;;;;;4956349;28;20075;-81
2023/07/19 06:46:07;;;;;;;6.13;2.65;;;23.90;66.20;;;;;;4971155;28;20494;-81
2023/07/19 06:48:33;;;;;;;5.57;2.78;;;23.90;68.20;;;;;;4969254;28;20038;-80
2023/07/19 06:50:58;;;;;;;4.07;2.25;;;23.90;68.80;;;;;;4961282;28;20118;-79
2023/07/19 06:53:24;;;;;;;4.78;2.78;;;24.00;69.80;;;;;;4960365;28;20037;-79
2023/07/19 06:55:53;;;;;;;3.83;2.45;;;24.20;67.30;;;;;;4967858;28;20090;-78
2023/07/19 06:58:18;;;;;;;6.18;2.60;;;24.10;65.80;;;;;;4969222;28;20026;-79
2023/07/19 07:00:45;;;;;;;3.15;2.33;;;24.30;66.40;;;;;;4969257;28;20541;-79
2023/07/19 07:03:10;;;;;;;4.85;2.40;;;24.60;68.00;;;;;;4958585;28;20067;-78
2023/07/19 07:05:36;;;;;;;3.00;2.30;;;25.20;69.70;;;;;;4956423;28;20042;-79
2023/07/19 07:08:02;;;;;;;3.28;2.97;;;25.60;67.50;;;;;;4956703;28;20501;-78
2023/07/19 07:10:28;;;;;;;6.25;2.78;;;25.90;67.60;;;;;;4963993;28;20741;-78
2023/07/19 07:12:53;;;;;;;3.63;2.20;;;26.10;60.70;;;;;;4956312;28;20035;-79
2023/07/19 07:15:19;;;;;;;3.35;2.33;;;26.20;61.10;;;;;;4959128;28;20027;-78
2023/07/19 07:17:47;;;;;;;3.78;2.28;;;26.60;64.10;;;;;;4960751;28;20505;-79
2023/07/19 07:20:13;;;;;;;3.65;2.28;;;26.90;62.80;;;;;;4964679;28;20098;-78
2023/07/19 07:22:39;;;;;;;3.63;2.70;;;27.20;61.60;;;;;;4960770;28;20034;-79
2023/07/19 07:25:05;;;;;;;7.60;2.35;;;27.40;59.40;;;;;;4963166;28;20037;-79
2023/07/19 07:27:30;;;;;;;2.65;2.22;;;27.40;57.40;;;;;;4966901;28;20084;-79
2023/07/19 07:29:58;;;;;;;3.42;2.42;;;27.00;56.70;;;;;;4965869;28;20061;-79
2023/07/19 07:32:23;;;;;;;3.83;2.45;;;26.90;59.40;;;;;;4955025;28;20082;-80
2023/07/19 07:34:49;;;;;;;5.47;2.25;;;27.00;61.50;;;;;;4956066;28;20031;-78
2023/07/19 07:37:15;;;;;;;3.30;2.17;;;27.40;57.70;;;;;;4956904;28;20486;-78
2023/07/19 07:39:40;;;;;;;2.97;2.10;;;27.40;58.20;;;;;;4980897;28;20031;-79
2023/07/19 07:42:07;;;;;;;3.97;2.30;;;27.50;58.60;;;;;;4960169;28;20394;-81
2023/07/19 07:44:33;;;;;;;3.80;2.00;;;27.50;58.90;;;;;;4959586;28;20356;-80
2023/07/19 07:46:59;;;;;;;3.17;2.55;;;27.50;59.80;;;;;;4961288;28;20050;-77
2023/07/19 07:49:25;;;;;;;3.10;2.03;;;27.60;59.60;;;;;;4949218;29;20046;-80
2023/07/19 07:51:51;;;;;;;2.50;2.00;;;27.50;56.70;;;;;;4959607;28;20027;-81
2023/07/19 07:54:17;;;;;;;7.10;2.20;;;27.60;58.90;;;;;;4966288;28;20183;-81
2023/07/19 07:56:43;;;;;;;3.15;2.13;;;27.70;57.30;;;;;;4966194;28;20043;-80
2023/07/19 07:59:09;;;;;;;4.53;2.10;;;27.70;58.50;;;;;;4962688;28;20121;-79
2023/07/19 08:01:35;;;;;;;4.30;2.22;;;27.90;58.30;;;;;;4950733;28;20098;-81
2023/07/19 08:04:01;;;;;;;5.97;2.28;;;28.10;56.50;;;;;;4953516;28;20090;-79
2023/07/19 08:06:27;;;;;;;4.07;2.33;;;28.30;55.70;;;;;;4954264;28;20117;-81
2023/07/19 08:08:53;;;;;;;2.33;2.00;;;28.50;54.60;;;;;;4957396;28;20078;-82
2023/07/19 08:11:21;;;;;;;4.20;2.13;;;28.50;54.70;;;;;;4967225;28;20054;-80
2023/07/19 08:13:47;;;;;;;3.60;2.10;;;28.70;55.80;;;;;;4956248;28;20031;-82
2023/07/19 08:16:13;;;;;;;6.10;2.20;;;28.90;56.10;;;;;;4958101;28;20041;-82
2023/07/19 08:18:39;;;;;;;3.30;2.38;;;28.70;51.20;;;;;;4956794;28;20032;-81
2023/07/19 08:21:06;;;;;;;2.05;1.83;;;28.90;54.10;;;;;;4959988;28;20346;-81
2023/07/19 08:23:32;;;;;;;2.65;2.03;;;29.20;54.60;;;;;;4960450;28;20062;-80
2023/07/19 08:25:58;;;;;;;4.25;2.00;;;29.50;52.90;;;;;;4951730;28;20187;-84
2023/07/19 08:28:27;;;;;;;3.05;2.17;;;29.50;53.10;;;;;;4964903;28;20051;-81
2023/07/19 08:30:53;;;;;;;3.13;2.25;;;29.40;52.60;;;;;;4963850;28;20135;-82
2023/07/19 08:33:21;;;;;;;4.88;2.20;;;29.40;52.50;;;;;;4954265;28;20042;-81
2023/07/19 08:35:47;;;;;;;2.20;2.00;;;29.40;52.20;;;;;;4958129;28;20031;-82
2023/07/19 08:38:13;;;;;;;4.72;1.90;;;29.00;53.20;;;;;;4957785;28;20035;-79
2023/07/19 08:40:39;;;;;;;4.13;2.08;;;28.70;54.50;;;;;;4961834;28;20799;-82
2023/07/19 08:43:08;;;;;;;3.10;2.60;;;28.40;55.80;;;;;;4965296;28;20419;-79
2023/07/19 08:45:39;;;;;;;3.67;2.10;;;28.10;54.80;;;;;;4982926;28;20102;-80
2023/07/19 08:48:06;;;;;;;5.03;2.10;;;27.80;55.70;;;;;;4965046;28;20428;-80
2023/07/19 08:50:34;;;;;;;4.53;2.20;;;27.50;56.30;;;;;;4962328;28;20039;-83
2023/07/19 08:53:02;;;;;;;3.42;2.25;;;27.40;57.30;;;;;;4963223;28;20067;-80
2023/07/19 08:55:31;;;;;;;3.45;2.38;;;27.20;56.30;;;;;;4967732;28;20038;-79
2023/07/19 08:57:57;;;;;;;1.90;1.80;;;27.20;57.70;;;;;;4959340;28;20031;-81
2023/07/19 09:00:24;;;;;;;3.20;2.28;;;27.20;56.40;;;;;;4960610;28;20066;-80
2023/07/19 09:02:49;;;;;;;6.63;2.53;;;27.30;57.70;;;;;;4958913;28;20023;-80
2023/07/19 09:05:15;;;;;;;2.70;2.47;;;27.30;57.40;;;;;;4956629;28;20496;-81
2023/07/19 09:07:41;;;;;;;4.75;2.28;;;27.30;56.40;;;;;;4959323;28;20035;-79
2023/07/19 09:10:09;;;;;;;2.63;2.40;;;27.30;56.20;;;;;;4955459;28;20496;-80
2023/07/19 09:12:39;;;;;;;3.90;2.53;;;27.30;59.80;;;;;;4962468;28;20031;-79
2023/07/19 09:15:07;;;;;;;4.57;2.40;;;27.40;52.60;;;;;;4972740;28;20035;-80
2023/07/19 09:17:50;;;;;;;4.20;2.30;;;27.40;54.60;;;;;;4961787;28;20478;-81
2023/07/19 09:20:17;;;;;;;2.42;2.15;;;27.50;58.70;;;;;;4955713;28;20035;-82
2023/07/19 09:22:43;;;;;;;5.25;2.33;;;27.70;54.90;;;;;;4955783;28;20129;-82
2023/07/19 09:25:10;;;;;;;2.97;2.30;;;27.90;55.60;;;;;;4943294;28;20039;-80
2023/07/19 09:27:37;;;;;;;5.30;2.40;;;28.10;54.00;;;;;;4962234;28;20491;-79
2023/07/19 09:30:08;;;;;;;3.05;2.13;;;28.20;55.90;;;;;;4959954;28;20323;-80
2023/07/19 09:32:34;;;;;;;5.95;2.20;;;28.30;55.10;;;;;;4961162;28;20038;-81
2023/07/19 09:35:03;;;;;;;4.22;2.53;;;28.30;53.90;;;;;;4961243;28;20030;-82
2023/07/19 09:37:29;;;;;;;3.42;2.20;;;28.30;53.40;;;;;;4972211;28;20044;-83
2023/07/19 09:39:56;;;;;;;3.38;2.33;;;28.40;55.10;;;;;;4955554;28;20035;-82
2023/07/19 09:42:24;;;;;;;3.40;2.25;;;28.40;55.70;;;;;;4956210;28;20070;-82
2023/07/19 09:44:50;;;;;;;3.10;2.50;;;28.50;54.20;;;;;;4956276;28;20031;-82
2023/07/19 09:47:16;;;;;;;4.38;2.13;;;28.60;54.30;;;;;;4956770;28;20107;-78
2023/07/19 09:49:42;;;;;;;3.80;2.30;;;28.70;55.20;;;;;;4955210;29;20434;-80
2023/07/19 09:52:12;;;;;;;3.42;2.30;;;28.80;54.40;;;;;;4964124;28;20059;-82
2023/07/19 09:54:38;;;;;;;3.42;2.20;;;28.70;54.70;;;;;;4962428;28;20565;-81
2023/07/19 09:57:04;;;;;;;2.75;2.15;;;28.50;54.90;;;;;;4965381;28;20031;-82
2023/07/19 09:59:37;;;;;;;2.97;2.38;;;28.40;54.80;;;;;;4957632;28;20167;-80
2023/07/19 10:02:04;;;;;;;3.60;2.15;;;28.30;54.80;;;;;;4958955;28;20165;-82
2023/07/19 10:04:37;;;;;;;7.07;2.40;;;28.30;54.60;;;;;;4953428;28;20568;-80
2023/07/19 10:07:03;;;;;;;3.97;2.30;;;28.30;55.40;;;;;;4959109;28;20031;-81
2023/07/19 10:09:30;;;;;;;3.05;2.47;;;28.40;54.50;;;;;;4958425;28;20037;-85
2023/07/19 10:12:01;;;;;;;4.80;2.45;;;28.40;53.80;;;;;;4958794;28;20035;-82
2023/07/19 10:14:27;;;;;;;3.95;2.70;;;28.50;52.80;;;;;;4961400;28;20023;-82
2023/07/19 10:16:58;;;;;;;3.25;2.50;;;28.30;53.90;;;;;;4961175;28;20080;-80
2023/07/19 10:19:25;;;;;;;5.95;2.50;;;28.40;53.90;;;;;;4955758;28;20019;-81
2023/07/19 10:22:04;;;;;;;3.78;2.25;;;28.40;54.30;;;;;;4965199;28;20509;-82
2023/07/19 10:24:35;;;;;;;4.03;2.30;;;28.50;55.30;;;;;;4947511;28;20031;-79
2023/07/19 10:27:06;;;;;;;5.25;2.33;;;28.60;54.90;;;;;;4970535;28;20031;-81
2023/07/19 10:29:45;;;;;;;3.55;2.50;;;28.60;54.90;;;;;;4970442;28;20031;-82
2023/07/19 10:32:11;;;;;;;4.30;2.13;;;28.80;54.50;;;;;;4955833;28;20043;-80
2023/07/19 10:34:38;;;;;;;4.38;2.60;;;28.80;54.80;;;;;;4962657;28;20039;-81
2023/07/19 10:37:06;;;;;;;4.07;2.55;;;28.90;53.20;;;;;;4981981;28;20041;-81
2023/07/19 10:39:34;;;;;;;5.57;2.53;;;29.00;52.60;;;;;;4966260;28;20027;-83
2023/07/19 10:42:01;;;;;;;5.53;2.58;;;29.00;51.90;;;;;;4968053;28;20389;-81
2023/07/19 10:44:27;;;;;;;2.60;2.10;;;28.90;53.00;;;;;;4960011;28;20043;-81
2023/07/19 10:46:58;;;;;;;2.80;2.50;;;29.00;54.00;;;;;;4964651;28;20035;-83
2023/07/19 10:49:24;;;;;;;3.88;2.22;;;28.90;55.00;;;;;;4967260;28;20039;-82
2023/07/19 10:51:58;;;;;;;6.20;3.15;;;28.80;54.70;;;;;;4964287;28;20038;-82
2023/07/19 10:54:25;;;;;;;4.90;2.45;;;28.70;55.80;;;;;;4957810;28;20035;-84
2023/07/19 10:56:53;;;;;;;3.97;2.45;;;28.60;55.00;;;;;;4964042;28;20038;-82
2023/07/19 10:59:19;;;;;;;3.80;2.20;;;28.60;56.20;;;;;;4966436;28;20023;-84
2023/07/19 11:01:49;;;;;;;2.72;2.30;;;28.70;55.30;;;;;;4973710;28;20062;-85
2023/07/19 11:04:18;;;;;;;4.60;2.55;;;28.60;56.10;;;;;;4970031;28;20062;-82
2023/07/19 11:06:59;;;;;;;4.18;2.60;;;28.60;54.90;;;;;;4948621;28;20043;-83
2023/07/19 11:09:25;;;;;;;4.30;2.50;;;28.60;54.90;;;;;;4962686;28;20023;-83
2023/07/19 11:11:52;;;;;;;3.60;2.17;;;28.60;53.80;;;;;;4961938;28;20038;-83
2023/07/19 11:14:32;;;;;;;10.55;2.58;;;28.50;55.40;;;;;;4963677;28;20087;-82
2023/07/19 11:16:59;;;;;;;5.70;2.40;;;28.50;52.50;;;;;;4963888;28;20482;-82
2023/07/19 11:19:35;;;;;;;2.92;2.60;;;28.40;54.90;;;;;;4965563;28;20027;-82
2023/07/19 11:22:01;;;;;;;2.20;2.00;;;28.50;53.40;;;;;;4962102;28;20027;-81
2023/07/19 11:24:41;;;;;;;3.88;2.28;;;28.20;53.30;;;;;;4963977;28;20034;-81
2023/07/19 11:27:08;;;;;;;4.78;2.33;;;28.00;52.10;;;;;;4965298;28;20031;-80
2023/07/19 11:29:35;;;;;;;4.00;2.55;;;27.90;54.00;;;;;;4971297;28;20031;-82
2023/07/19 11:32:18;;;;;;;4.88;2.60;;;27.80;54.90;;;;;;4965849;28;20664;-83
2023/07/19 11:34:56;;;;;;;4.03;2.47;;;27.90;56.40;;;;;;4959580;28;20505;-83
2023/07/19 11:37:40;;;;;;;3.67;2.40;;;28.00;52.80;;;;;;4958300;28;20405;-82
2023/07/19 11:40:07;;;;;;;6.30;2.33;;;28.00;56.00;;;;;;4954772;28;20371;-82
2023/07/19 11:42:41;;;;;;;3.28;2.60;;;27.90;57.40;;;;;;4960441;28;20027;-82
2023/07/19 11:45:15;;;;;;;3.50;2.20;;;28.00;56.60;;;;;;4958593;28;20030;-80
2023/07/19 11:47:42;;;;;;;2.40;2.20;;;28.10;54.70;;;;;;4949585;29;20031;-84
2023/07/19 11:50:12;;;;;;;3.35;2.22;;;28.10;56.10;;;;;;4957437;28;20465;-83
2023/07/19 11:52:59;;;;;;;3.60;2.60;;;28.20;56.00;;;;;;4966170;28;20671;-83
2023/07/19 11:55:25;;;;;;;3.88;2.97;;;28.40;53.20;;;;;;4964599;28;20027;-82
2023/07/19 11:57:52;;;;;;;3.97;2.20;;;28.50;50.90;;;;;;4949847;28;20045;-86
2023/07/19 12:00:20;;;;;;;7.18;2.58;;;28.60;52.40;;;;;;4951271;28;20568;-84
2023/07/19 12:02:48;;;;;;;4.90;2.13;;;28.60;53.60;;;;;;4958895;28;20034;-83
2023/07/19 12:05:34;;;;;;;5.35;2.65;;;28.60;53.60;;;;;;4943418;28;20049;-84
2023/07/19 12:07:59;;;;;;;3.25;2.10;;;28.60;54.00;;;;;;4958300;28;20035;-85
2023/07/19 12:10:26;;;;;;;2.97;2.00;;;28.60;54.30;;;;;;4957769;28;20031;-83
2023/07/19 12:12:53;;;;;;;3.88;2.20;;;28.60;53.90;;;;;;4953335;28;20019;-84
2023/07/19 12:15:19;;;;;;;3.63;2.30;;;28.50;54.40;;;;;;4952165;28;20063;-83
2023/07/19 12:17:45;;;;;;;3.47;1.95;;;28.30;52.90;;;;;;4952217;28;20035;-81
2023/07/19 12:20:11;;;;;;;2.63;2.10;;;28.30;52.00;;;;;;4954487;28;20386;-81
2023/07/19 12:22:41;;;;;;;3.83;1.80;;;28.20;53.60;;;;;;4964076;28;20030;-84
2023/07/19 12:25:08;;;;;;;3.45;1.88;;;28.20;53.40;;;;;;4956729;28;20039;-83
2023/07/19 12:27:33;;;;;;;4.10;2.03;;;28.20;53.80;;;;;;4958418;28;20129;-81
2023/07/19 12:29:59;;;;;;;3.17;1.98;;;28.30;54.80;;;;;;4954380;28;20019;-82
2023/07/19 12:32:26;;;;;;;3.60;1.80;;;28.50;53.90;;;;;;4951428;28;20126;-80
2023/07/19 12:34:51;;;;;;;6.03;1.90;;;28.60;51.70;;;;;;4954409;28;20550;-80
2023/07/19 12:37:17;;;;;;;1.92;1.67;;;28.70;50.90;;;;;;4959473;28;20818;-83
2023/07/19 12:39:43;;;;;;;4.43;2.03;;;28.80;52.90;;;;;;4951292;28;20027;-81
2023/07/19 12:42:10;;;;;;;2.42;1.88;;;28.90;49.50;;;;;;4962568;28;20638;-80
2023/07/19 12:44:36;;;;;;;3.72;1.88;;;29.20;48.40;;;;;;4954178;28;20030;-79
2023/07/19 12:47:03;;;;;;;3.50;1.67;;;29.40;51.00;;;;;;4961232;28;20018;-81